Time;durP1;ratioP1;P1;durP2;ratioP2;P2;SDS_P1;SDS_P2;PMS_P1;PMS_P2;Temp;Humidity;BMP_temperature;BMP_pressure;BME280_temperature;BME280_humidity;BME280_pressure;Samples;Min_cycle;Max_cycle;Signal;HPM_P1;HPM_P2
2023/02/20 00:13:03;;;;;;;4.95;3.75;;;20.70;61.80;;;;;;4931474;28;92150;-89
2023/02/20 00:15:29;;;;;;;5.63;3.83;;;20.70;61.90;;;;;;4938501;28;96806;-88
2023/02/20 00:17:54;;;;;;;7.95;4.47;;;20.70;61.80;;;;;;4940446;28;87430;-86
2023/02/20 00:20:22;;;;;;;5.22;3.85;;;20.70;61.70;;;;;;4939437;28;89322;-88
2023/02/20 00:22:49;;;;;;;6.80;3.90;;;20.70;61.90;;;;;;4939545;28;89558;-88
2023/02/20 00:25:18;;;;;;;5.78;3.83;;;20.60;61.90;;;;;;4940653;28;89164;-89
2023/02/20 00:27:44;;;;;;;4.68;3.65;;;20.60;61.80;;;;;;4939431;28;88086;-88
2023/02/20 00:30:15;;;;;;;4.32;3.58;;;20.60;61.70;;;;;;4938224;28;87559;-88
2023/02/20 00:32:40;;;;;;;5.15;3.45;;;20.60;61.80;;;;;;4937362;28;88341;-88
2023/02/20 00:35:08;;;;;;;4.93;3.45;;;20.60;61.80;;;;;;4936264;28;88878;-89
2023/02/20 00:37:33;;;;;;;5.35;3.40;;;20.60;61.80;;;;;;4936694;28;87353;-88
2023/02/20 00:39:59;;;;;;;4.88;3.95;;;20.60;61.60;;;;;;4936663;28;87002;-87
2023/02/20 00:52:45;;;;;;;5.10;3.50;;;20.50;61.80;;;;;;4940105;28;87087;-88
2023/02/20 00:55:11;;;;;;;5.32;3.70;;;20.50;61.80;;;;;;4939868;28;87742;-89
2023/02/20 00:57:37;;;;;;;5.75;3.45;;;20.50;61.90;;;;;;4939678;28;87982;-88
2023/02/20 01:00:05;;;;;;;4.05;3.38;;;20.50;61.90;;;;;;4939988;28;87603;-88
2023/02/20 01:02:31;;;;;;;5.78;4.05;;;20.50;61.60;;;;;;4939336;28;87558;-88
2023/02/20 01:15:05;;;;;;;4.95;3.80;;;20.40;61.70;;;;;;4942869;28;90448;-88
2023/02/20 01:17:33;;;;;;;5.53;3.95;;;20.40;62.40;;;;;;4959029;28;88248;-88
2023/02/20 01:19:59;;;;;;;6.43;3.67;;;20.30;61.60;;;;;;4958316;28;89350;-88
2023/02/20 01:22:25;;;;;;;4.93;3.35;;;20.40;61.70;;;;;;4958991;28;87512;-88
2023/02/20 01:24:50;;;;;;;4.80;3.42;;;20.30;61.50;;;;;;4959113;28;87649;-87
2023/02/20 01:27:16;;;;;;;5.90;3.35;;;20.40;61.60;;;;;;4958653;28;87027;-89
2023/02/20 01:29:47;;;;;;;4.20;3.33;;;20.30;61.50;;;;;;4959235;28;87780;-87
2023/02/20 01:32:13;;;;;;;4.95;3.28;;;20.30;61.80;;;;;;4958710;28;87458;-88
2023/02/20 01:34:39;;;;;;;5.03;3.83;;;20.30;61.70;;;;;;4958354;28;87482;-88
2023/02/20 01:37:05;;;;;;;4.65;3.63;;;20.30;61.50;;;;;;4958324;28;90169;-88
2023/02/20 01:39:30;;;;;;;4.82;3.78;;;20.30;61.70;;;;;;4945456;28;88212;-88
2023/02/20 01:59:03;;;;;;;4.05;3.30;;;20.20;61.70;;;;;;4957933;28;87593;-89
2023/02/20 02:01:28;;;;;;;4.95;3.55;;;20.20;61.70;;;;;;4957631;28;87371;-88
2023/02/20 02:04:00;;;;;;;6.07;3.83;;;20.10;61.60;;;;;;4936582;28;91442;-89
2023/02/20 02:06:28;;;;;;;4.88;2.90;;;20.20;61.80;;;;;;4940179;28;87045;-89
2023/02/20 02:08:58;;;;;;;4.38;3.35;;;20.20;61.80;;;;;;4948815;28;86851;-89
2023/02/20 02:11:26;;;;;;;4.35;3.08;;;20.20;61.80;;;;;;4946397;28;96717;-88
2023/02/20 02:13:51;;;;;;;5.68;3.38;;;20.10;61.80;;;;;;4930793;28;92994;-89
2023/02/20 02:16:50;;;;;;;5.30;3.60;;;20.10;61.80;;;;;;4935369;28;87382;-88
2023/02/20 02:19:25;;;;;;;4.60;3.45;;;20.10;61.60;;;;;;4955833;28;89117;-89
2023/02/20 02:22:25;;;;;;;4.70;3.20;;;20.10;61.60;;;;;;4953698;28;87723;-88
2023/02/20 02:25:15;;;;;;;2.97;2.67;;;20.10;61.80;;;;;;4947859;28;88245;-88
2023/02/20 02:35:11;;;;;;;5.00;3.72;;;20.10;61.70;;;;;;4957608;28;87384;-88
2023/02/20 02:37:40;;;;;;;4.20;3.35;;;20.10;61.60;;;;;;4957018;28;88285;-88
2023/02/20 02:40:31;;;;;;;4.75;3.13;;;20.10;61.70;;;;;;4936495;28;88299;-89
2023/02/20 02:43:06;;;;;;;4.97;3.50;;;20.00;61.70;;;;;;4937774;28;87508;-88
2023/02/20 02:52:37;;;;;;;4.45;3.17;;;20.00;61.70;;;;;;4956564;28;86900;-89
2023/02/20 02:55:07;;;;;;;4.70;3.05;;;20.00;61.60;;;;;;4957444;28;87058;-88
2023/02/20 02:57:33;;;;;;;3.70;3.08;;;20.00;61.70;;;;;;4957293;28;88066;-89
2023/02/20 03:00:08;;;;;;;4.25;2.97;;;20.00;61.70;;;;;;4957238;28;87304;-88
2023/02/20 03:06:01;;;;;;;4.55;3.15;;;20.00;61.60;;;;;;4956120;28;91043;-89
2023/02/20 03:08:40;;;;;;;4.55;3.22;;;20.00;61.60;;;;;;4939007;28;91711;-89
2023/02/20 03:11:14;;;;;;;3.97;3.20;;;19.90;61.40;;;;;;4938249;28;90840;-88
2023/02/20 03:16:44;;;;;;;4.32;3.38;;;19.90;61.20;;;;;;4956753;28;87546;-89
2023/02/20 03:19:14;;;;;;;4.38;3.33;;;19.90;61.50;;;;;;4956994;28;88605;-88
2023/02/20 03:25:12;;;;;;;5.28;3.05;;;19.90;61.30;;;;;;4955958;28;87402;-89
2023/02/20 03:28:09;;;;;;;3.67;2.97;;;19.90;61.50;;;;;;4935354;28;91412;-88
2023/02/20 03:30:44;;;;;;;4.00;2.90;;;19.90;61.40;;;;;;4923177;28;90869;-88
2023/02/20 03:45:18;;;;;;;4.00;2.90;;;19.80;61.30;;;;;;4937550;28;87631;-88
2023/02/20 03:47:49;;;;;;;3.97;2.92;;;19.80;61.20;;;;;;4951292;28;87197;-88
2023/02/20 03:52:59;;;;;;;3.40;2.78;;;19.80;61.00;;;;;;4946698;28;86887;-88
2023/02/20 03:55:26;;;;;;;4.55;3.13;;;19.80;61.20;;;;;;4947156;28;88238;-88
2023/02/20 04:08:34;;;;;;;4.50;3.33;;;19.80;61.10;;;;;;4955014;28;86956;-89
2023/02/20 04:11:15;;;;;;;3.53;2.78;;;19.80;61.10;;;;;;4956906;28;87582;-88
2023/02/20 04:13:41;;;;;;;2.83;2.47;;;19.80;61.10;;;;;;4955126;28;87146;-87
2023/02/20 04:16:08;;;;;;;2.90;2.42;;;19.80;61.30;;;;;;4955837;28;88607;-87
2023/02/20 04:18:34;;;;;;;2.83;2.35;;;19.80;61.10;;;;;;4938460;28;90155;-89
2023/02/20 04:21:03;;;;;;;3.03;2.35;;;19.80;61.00;;;;;;4957317;28;87705;-88
2023/02/20 04:23:31;;;;;;;3.83;2.63;;;19.70;61.10;;;;;;4959252;28;90498;-88
2023/02/20 04:32:41;;;;;;;3.88;2.78;;;19.70;61.00;;;;;;4958628;28;88563;-88
2023/02/20 04:35:14;;;;;;;3.88;3.00;;;19.70;61.00;;;;;;4959272;28;87210;-88
2023/02/20 04:37:40;;;;;;;3.25;2.58;;;19.70;61.00;;;;;;4959316;28;88516;-90
2023/02/20 04:40:05;;;;;;;3.38;2.67;;;19.70;61.10;;;;;;4959296;28;88318;-88
2023/02/20 04:42:31;;;;;;;3.90;2.72;;;19.70;61.10;;;;;;4959119;28;87346;-89
2023/02/20 04:44:57;;;;;;;3.63;2.60;;;19.70;61.00;;;;;;4958967;28;87450;-87
2023/02/20 04:47:22;;;;;;;3.25;2.83;;;19.70;61.10;;;;;;4941865;28;90535;-89
2023/02/20 05:03:15;;;;;;;3.72;2.95;;;19.60;61.00;;;;;;4957416;28;88304;-88
2023/02/20 05:05:44;;;;;;;4.15;2.95;;;19.60;61.00;;;;;;4959822;28;87128;-88
2023/02/20 05:08:09;;;;;;;4.05;2.85;;;19.60;60.90;;;;;;4958471;28;95225;-88
2023/02/20 05:10:35;;;;;;;2.83;2.45;;;19.60;61.20;;;;;;4958911;28;89269;-88
2023/02/20 05:13:01;;;;;;;2.85;2.35;;;19.60;61.10;;;;;;4958924;28;87983;-88
2023/02/20 05:15:28;;;;;;;3.83;2.67;;;19.60;60.90;;;;;;4958800;28;87430;-88
2023/02/20 05:17:54;;;;;;;3.45;2.30;;;19.50;61.00;;;;;;4959971;28;87530;-89
2023/02/20 05:22:17;;;;;;;3.60;2.35;;;19.50;60.90;;;;;;4958246;28;92573;-88
2023/02/20 05:23:06;;;;;;;4.43;2.92;;;19.60;56.20;;;;;;4958286;28;89256;-87
2023/02/20 05:25:31;;;;;;;4.15;2.42;;;19.60;56.70;;;;;;4958317;28;88392;-87
2023/02/20 05:27:57;;;;;;;4.85;2.60;;;19.60;57.30;;;;;;4958268;28;87413;-87
2023/02/20 05:30:22;;;;;;;4.03;2.30;;;19.50;57.50;;;;;;4958246;28;87623;-87
2023/02/20 05:32:48;;;;;;;4.38;2.83;;;19.50;57.50;;;;;;4958231;28;88682;-87
2023/02/20 05:35:14;;;;;;;3.75;2.75;;;19.50;57.70;;;;;;4939918;28;87193;-87
2023/02/20 05:37:47;;;;;;;4.30;2.53;;;19.50;57.60;;;;;;4958312;28;87192;-87
2023/02/20 05:40:12;;;;;;;3.92;2.72;;;19.50;57.70;;;;;;4946333;28;87774;-87
2023/02/20 05:42:39;;;;;;;4.22;2.20;;;19.50;57.40;;;;;;4957944;28;88202;-87
2023/02/20 05:45:05;;;;;;;3.65;2.40;;;19.50;57.30;;;;;;4948875;28;86860;-87
2023/02/20 05:47:31;;;;;;;4.20;2.80;;;19.50;57.20;;;;;;4956383;28;87294;-87
2023/02/20 05:49:57;;;;;;;5.03;2.67;;;19.50;57.60;;;;;;4957548;28;89286;-87
2023/02/20 05:52:22;;;;;;;4.25;2.55;;;19.50;57.20;;;;;;4957889;28;87337;-87
2023/02/20 05:54:48;;;;;;;4.10;2.67;;;19.50;57.20;;;;;;4959396;28;87642;-87
2023/02/20 05:57:14;;;;;;;3.83;2.30;;;19.50;57.30;;;;;;4958062;28;87506;-87
2023/02/20 05:59:40;;;;;;;3.65;2.35;;;19.50;57.10;;;;;;4958141;28;88623;-87
2023/02/20 06:02:06;;;;;;;4.75;2.80;;;19.50;57.20;;;;;;4958063;28;87578;-87
2023/02/20 06:04:31;;;;;;;3.75;2.78;;;19.40;57.20;;;;;;4958176;28;87262;-87
2023/02/20 06:06:57;;;;;;;3.95;2.60;;;19.50;57.10;;;;;;4958111;28;86821;-87
2023/02/20 06:09:24;;;;;;;4.30;2.58;;;19.40;56.80;;;;;;4957814;28;88583;-87
2023/02/20 06:11:52;;;;;;;5.32;2.78;;;19.40;57.00;;;;;;4957274;28;89085;-86
2023/02/20 06:14:20;;;;;;;3.93;2.30;;;19.40;56.90;;;;;;4956646;28;88499;-87
2023/02/20 06:16:45;;;;;;;3.90;2.45;;;19.40;56.70;;;;;;4957699;28;87337;-86
2023/02/20 06:19:21;;;;;;;4.75;2.72;;;19.40;56.70;;;;;;4958032;28;88487;-87
2023/02/20 06:21:47;;;;;;;3.65;2.80;;;19.40;56.70;;;;;;4957549;28;88198;-86
2023/02/20 06:24:12;;;;;;;4.65;2.60;;;19.40;56.40;;;;;;4958175;28;87962;-87
2023/02/20 06:26:40;;;;;;;3.08;2.40;;;19.40;56.30;;;;;;4958792;28;87341;-87
2023/02/20 06:29:06;;;;;;;6.05;2.53;;;19.30;56.50;;;;;;4957217;28;88756;-87
2023/02/20 06:31:31;;;;;;;3.47;2.63;;;19.40;56.50;;;;;;4958496;28;88667;-87
2023/02/20 06:33:57;;;;;;;5.03;2.50;;;19.30;56.50;;;;;;4957341;28;87337;-87
2023/02/20 06:36:26;;;;;;;5.22;2.45;;;19.30;56.50;;;;;;4929667;28;90409;-87
2023/02/20 06:38:51;;;;;;;3.35;2.20;;;19.30;56.40;;;;;;4956450;28;88577;-89
2023/02/20 06:41:17;;;;;;;5.63;2.88;;;19.40;57.00;;;;;;4957592;28;87662;-89
2023/02/20 06:44:01;;;;;;;6.05;2.35;;;19.40;57.40;;;;;;4957853;28;87349;-87
2023/02/20 06:46:27;;;;;;;16.20;4.55;;;19.40;57.20;;;;;;4957275;28;87590;-87
2023/02/20 06:48:57;;;;;;;13.77;4.35;;;19.40;57.20;;;;;;4957599;28;88640;-88
2023/02/20 06:51:29;;;;;;;11.93;4.32;;;19.40;57.60;;;;;;4935896;28;90221;-89
2023/02/20 06:53:55;;;;;;;12.93;4.28;;;19.40;57.30;;;;;;4921441;28;86889;-87
2023/02/20 06:59:48;;;;;;;14.02;4.10;;;19.60;57.60;;;;;;4958825;28;91408;-88
2023/02/20 07:02:15;;;;;;;12.82;4.05;;;19.90;57.70;;;;;;4957569;28;88369;-91
2023/02/20 07:04:41;;;;;;;10.00;3.45;;;20.00;57.60;;;;;;4939208;28;88351;-89
2023/02/20 07:07:06;;;;;;;10.25;4.07;;;20.10;57.80;;;;;;4939594;28;89144;-88
2023/02/20 07:09:32;;;;;;;9.38;3.50;;;20.20;57.70;;;;;;4939306;28;91077;-88
2023/02/20 07:19:21;;;;;;;7.75;3.53;;;20.50;57.40;;;;;;4949053;28;90199;-88
2023/02/20 07:21:47;;;;;;;7.22;3.15;;;20.50;57.30;;;;;;4954782;28;91470;-87
2023/02/20 07:24:13;;;;;;;8.70;3.50;;;20.50;57.30;;;;;;4956397;28;88421;-87
2023/02/20 07:26:39;;;;;;;10.23;3.90;;;20.50;57.50;;;;;;4937979;28;87658;-88
2023/02/20 07:29:06;;;;;;;9.25;3.67;;;20.50;57.50;;;;;;4925794;28;90945;-87
2023/02/20 07:31:31;;;;;;;10.52;3.67;;;20.40;57.70;;;;;;4928393;28;92513;-87
2023/02/20 07:33:58;;;;;;;8.02;3.33;;;20.40;57.70;;;;;;4945513;28;89148;-88
2023/02/20 07:36:24;;;;;;;11.13;4.00;;;20.30;57.90;;;;;;4957272;28;87574;-88
2023/02/20 07:38:58;;;;;;;9.75;3.45;;;20.20;58.10;;;;;;4938821;28;90343;-87
2023/02/20 07:48:07;;;;;;;6.28;3.20;;;20.20;58.30;;;;;;4955252;28;87825;-88
2023/02/20 07:50:34;;;;;;;6.30;2.88;;;20.20;58.50;;;;;;4957493;28;87914;-88
2023/02/20 07:52:59;;;;;;;15.75;4.30;;;20.20;58.70;;;;;;4953048;28;94724;-88
2023/02/20 07:55:25;;;;;;;10.90;4.20;;;20.20;58.90;;;;;;4956594;28;88352;-88
2023/02/20 07:57:53;;;;;;;14.25;4.68;;;20.20;58.60;;;;;;4957170;28;87995;-85
2023/02/20 08:00:22;;;;;;;13.93;4.22;;;20.30;58.90;;;;;;4911134;28;90400;-90
2023/02/20 08:02:48;;;;;;;;;;;20.30;58.90;;;;;;4939615;28;91516;-88
2023/02/20 08:05:13;;;;;;;21.15;4.65;;;20.40;58.70;;;;;;4955865;28;87824;-88
2023/02/20 08:07:47;;;;;;;22.23;4.93;;;20.50;59.10;;;;;;4942969;28;87522;-88
2023/02/20 08:10:15;;;;;;;23.10;5.53;;;20.50;59.10;;;;;;4954403;28;88068;-88
2023/02/20 08:12:40;;;;;;;19.48;5.25;;;20.50;59.20;;;;;;4938656;28;90660;-92
2023/02/20 08:15:09;;;;;;;19.63;4.75;;;20.60;59.20;;;;;;4941558;28;91040;-89
2023/02/20 08:17:34;;;;;;;21.60;5.28;;;20.70;59.50;;;;;;4960688;28;87415;-89
2023/02/20 08:20:00;;;;;;;15.15;6.10;;;20.60;54.30;;;;;;4942652;28;89229;-88
2023/02/20 08:22:26;;;;;;;16.02;5.32;;;20.50;53.30;;;;;;4961063;28;88572;-93
2023/02/20 08:24:51;;;;;;;17.35;5.55;;;20.40;55.40;;;;;;4943246;28;90675;-89
2023/02/20 08:27:26;;;;;;;18.92;4.88;;;20.50;57.40;;;;;;4943165;28;87325;-89
2023/02/20 08:29:52;;;;;;;16.58;6.20;;;20.50;56.60;;;;;;4959918;28;91007;-89
2023/02/20 08:32:18;;;;;;;16.08;5.30;;;20.40;53.40;;;;;;4942248;28;89756;-89
2023/02/20 08:34:44;;;;;;;13.60;5.05;;;20.30;53.40;;;;;;4942398;28;91326;-90
2023/02/20 08:37:17;;;;;;;15.05;4.93;;;20.40;55.10;;;;;;4929883;28;87985;-88
2023/02/20 08:39:42;;;;;;;14.80;4.88;;;20.40;55.90;;;;;;4938268;28;86565;-87
2023/02/20 08:42:08;;;;;;;16.52;5.43;;;20.60;56.50;;;;;;4919011;28;92064;-88
2023/02/20 08:44:34;;;;;;;13.43;6.13;;;20.60;55.90;;;;;;4938272;28;88251;-88
2023/02/20 08:46:59;;;;;;;17.40;5.78;;;20.60;51.00;;;;;;4921043;28;88533;-87
2023/02/20 08:49:25;;;;;;;14.32;4.93;;;20.50;50.60;;;;;;4918637;28;89689;-87
2023/02/20 09:08:57;;;;;;;22.98;7.07;;;20.70;56.20;;;;;;4931524;28;90315;-87
2023/02/20 09:11:22;;;;;;;16.42;5.97;;;20.70;56.90;;;;;;4921577;28;87905;-88
2023/02/20 09:13:48;;;;;;;21.27;6.80;;;20.60;57.70;;;;;;4917629;28;89892;-87
2023/02/20 09:16:17;;;;;;;22.40;7.35;;;20.60;58.90;;;;;;4908600;28;91830;-87
2023/02/20 09:18:54;;;;;;;22.45;7.25;;;20.60;59.20;;;;;;4921973;28;91298;-86
2023/02/20 09:21:20;;;;;;;19.00;7.30;;;20.60;59.90;;;;;;4938684;28;87391;-86
2023/02/20 09:23:46;;;;;;;17.88;5.68;;;20.60;60.90;;;;;;4938136;28;87382;-88
2023/02/20 09:26:11;;;;;;;22.40;7.10;;;20.70;61.00;;;;;;4929817;28;89645;-87
2023/02/20 09:28:37;;;;;;;21.50;7.95;;;20.70;61.90;;;;;;4928872;28;88176;-89
2023/02/20 09:45:11;;;;;;;21.73;7.57;;;20.60;66.00;;;;;;4938624;28;88290;-88
2023/02/20 09:48:10;;;;;;;18.52;7.10;;;20.60;67.40;;;;;;4939309;28;91775;-92
2023/02/20 09:50:43;;;;;;;19.73;6.80;;;20.60;66.70;;;;;;4952910;28;96279;-89
2023/02/20 09:53:20;;;;;;;16.00;6.78;;;20.70;67.20;;;;;;4927751;28;91010;-89
2023/02/20 10:13:03;;;;;;;13.77;6.00;;;20.70;67.20;;;;;;4939316;28;87635;-90
2023/02/20 10:15:28;;;;;;;14.05;5.97;;;20.70;66.90;;;;;;4934263;28;92418;-89
2023/02/20 10:18:04;;;;;;;14.27;5.97;;;20.70;67.00;;;;;;4934652;28;89339;-90
2023/02/20 10:20:55;;;;;;;15.90;7.13;;;20.60;67.30;;;;;;4948576;28;87533;-89
2023/02/20 10:23:39;;;;;;;15.00;6.22;;;20.60;68.70;;;;;;4958083;28;92331;-90
2023/02/20 10:26:11;;;;;;;15.32;6.65;;;20.50;67.40;;;;;;4958458;28;88614;-89
2023/02/20 10:28:41;;;;;;;17.23;6.97;;;20.50;67.10;;;;;;4946930;28;88007;-87
2023/02/20 10:31:39;;;;;;;17.33;6.13;;;20.50;67.80;;;;;;4957392;28;87479;-88
2023/02/20 10:34:20;;;;;;;18.23;7.13;;;20.50;65.90;;;;;;4958571;28;87068;-90
2023/02/20 10:36:52;;;;;;;13.88;5.47;;;20.60;65.50;;;;;;4946044;28;90958;-90
2023/02/20 10:39:24;;;;;;;15.85;6.60;;;20.60;66.00;;;;;;4957087;28;88441;-89
2023/02/20 10:42:08;;;;;;;12.52;6.68;;;20.70;66.10;;;;;;4940098;28;88145;-89
2023/02/20 10:44:57;;;;;;;16.25;6.03;;;20.70;63.70;;;;;;4950241;28;93841;-89
2023/02/20 10:47:41;;;;;;;16.17;6.72;;;20.70;64.90;;;;;;4957872;28;93223;-90
2023/02/20 11:07:14;;;;;;;12.65;5.90;;;20.50;66.00;;;;;;4955410;28;87211;-88
2023/02/20 11:09:40;;;;;;;11.82;5.53;;;20.50;65.30;;;;;;4955075;28;87636;-88
2023/02/20 11:12:07;;;;;;;12.77;6.20;;;20.60;64.40;;;;;;4954567;28;88274;-88
2023/02/20 11:14:38;;;;;;;10.60;5.50;;;20.70;64.10;;;;;;4955516;28;88684;-88
2023/02/20 11:24:33;;;;;;;12.65;5.80;;;20.70;64.00;;;;;;4931706;28;92531;-89
2023/02/20 11:27:04;;;;;;;11.23;5.10;;;20.70;64.20;;;;;;4957827;28;87646;-88
2023/02/20 11:29:38;;;;;;;14.52;6.68;;;20.70;64.20;;;;;;4957830;28;87017;-89
2023/02/20 11:32:22;;;;;;;10.73;5.25;;;20.70;64.30;;;;;;4960048;28;87858;-88
2023/02/20 11:41:38;;;;;;;12.38;5.93;;;20.60;65.00;;;;;;4960205;28;88194;-89
2023/02/20 11:44:10;;;;;;;10.55;5.80;;;20.60;64.90;;;;;;4939173;28;90923;-89
2023/02/20 11:46:36;;;;;;;14.02;5.95;;;20.60;64.30;;;;;;4947153;28;87802;-88
2023/02/20 11:49:07;;;;;;;11.02;6.15;;;20.60;64.20;;;;;;4954055;28;89906;-88
2023/02/20 11:51:40;;;;;;;15.90;6.07;;;20.70;63.30;;;;;;4942941;28;87016;-89
2023/02/20 11:54:28;;;;;;;16.75;6.93;;;20.60;64.10;;;;;;4934475;28;90495;-91
2023/02/20 11:56:56;;;;;;;13.77;6.35;;;20.50;63.70;;;;;;4948923;28;90158;-90
2023/02/20 11:59:24;;;;;;;13.73;5.85;;;20.60;63.90;;;;;;4940186;28;94267;-90
2023/02/20 12:01:50;;;;;;;8.73;4.88;;;20.60;63.70;;;;;;4949063;28;87098;-90
2023/02/20 12:04:22;;;;;;;11.32;6.13;;;20.70;63.50;;;;;;4939353;28;90932;-89
2023/02/20 12:06:47;;;;;;;14.15;5.43;;;20.70;63.40;;;;;;4929250;28;92853;-91
2023/02/20 12:09:24;;;;;;;13.00;6.38;;;20.70;63.40;;;;;;4959890;28;89852;-90
2023/02/20 12:11:53;;;;;;;11.55;5.63;;;20.70;63.40;;;;;;4958878;28;87520;-89
2023/02/20 12:14:37;;;;;;;12.07;5.00;;;20.70;63.40;;;;;;4959916;28;87746;-91
2023/02/20 12:17:20;;;;;;;12.10;6.13;;;20.70;63.50;;;;;;4959643;28;88687;-90
2023/02/20 12:20:15;;;;;;;12.73;5.25;;;20.60;63.50;;;;;;4948447;28;90389;-90
2023/02/20 12:22:48;;;;;;;10.98;5.55;;;20.60;63.50;;;;;;4960212;28;88012;-91
2023/02/20 12:25:29;;;;;;;15.07;5.95;;;20.60;63.50;;;;;;4938584;28;90506;-90
2023/02/20 12:35:19;;;;;;;11.13;5.35;;;20.50;63.40;;;;;;4949853;28;88519;-88
2023/02/20 12:37:57;;;;;;;12.20;5.45;;;20.40;63.60;;;;;;4939102;28;90652;-88
2023/02/20 12:40:34;;;;;;;11.45;6.20;;;20.40;63.30;;;;;;4957326;28;91907;-86
2023/02/20 12:43:32;;;;;;;11.27;5.40;;;20.40;63.40;;;;;;4956945;28;90779;-88
2023/02/20 12:46:20;;;;;;;10.33;5.57;;;20.40;63.20;;;;;;4941262;28;87269;-87
2023/02/20 12:49:17;;;;;;;14.60;5.93;;;20.60;63.00;;;;;;4955826;28;87450;-88
2023/02/20 12:51:59;;;;;;;9.93;5.47;;;20.60;62.60;;;;;;4932360;28;89563;-88
2023/02/20 12:54:56;;;;;;;12.15;5.95;;;20.70;62.40;;;;;;4941848;28;91377;-87
2023/02/20 12:57:41;;;;;;;11.10;5.28;;;20.70;62.20;;;;;;4851906;29;87294;-86
2023/02/20 13:00:14;;;;;;;8.57;4.60;;;20.70;62.20;;;;;;4836130;29;89445;-86
2023/02/20 13:02:58;;;;;;;11.35;5.22;;;20.70;62.20;;;;;;4860634;29;89241;-88
2023/02/20 13:05:26;;;;;;;9.88;5.15;;;20.70;62.20;;;;;;4879140;28;95173;-88
2023/02/20 13:07:55;;;;;;;11.40;4.93;;;20.70;62.10;;;;;;4863695;28;87246;-88
2023/02/20 13:10:31;;;;;;;10.43;5.13;;;20.60;62.30;;;;;;4879833;28;87450;-88
2023/02/20 13:12:57;;;;;;;10.15;5.20;;;20.60;62.30;;;;;;4879471;28;88773;-87
2023/02/20 13:18:53;;;;;;;8.88;4.88;;;20.50;62.30;;;;;;4879229;28;89217;-88
2023/02/20 13:21:24;;;;;;;9.57;4.90;;;20.50;62.40;;;;;;4879415;28;86893;-88
2023/02/20 13:23:51;;;;;;;10.00;5.38;;;20.50;62.30;;;;;;4880345;28;89465;-87
2023/02/20 13:26:32;;;;;;;12.40;5.95;;;20.40;62.30;;;;;;4879154;28;89991;-87
2023/02/20 13:29:17;;;;;;;9.65;5.30;;;20.40;62.20;;;;;;4878799;28;88282;-88
2023/02/20 13:31:51;;;;;;;9.52;5.38;;;20.40;62.20;;;;;;4862878;28;90206;-88
2023/02/20 13:34:17;;;;;;;13.98;5.97;;;20.50;62.10;;;;;;4901994;28;90142;-87
2023/02/20 13:36:49;;;;;;;7.70;4.85;;;20.60;61.90;;;;;;4941009;28;90929;-87
2023/02/20 13:39:18;;;;;;;7.40;4.78;;;20.60;61.50;;;;;;4957489;28;87543;-88
2023/02/20 13:41:55;;;;;;;12.25;4.85;;;20.70;61.50;;;;;;4959666;28;87479;-88
2023/02/20 13:44:29;;;;;;;10.60;5.63;;;20.70;61.70;;;;;;4958960;28;92969;-88
2023/02/20 13:54:08;;;;;;;8.07;4.38;;;20.60;61.60;;;;;;4916878;28;89105;-87
2023/02/20 13:57:05;;;;;;;9.13;5.28;;;20.60;61.50;;;;;;4822087;29;92280;-88
2023/02/20 13:59:33;;;;;;;6.50;4.43;;;20.50;61.50;;;;;;4821005;29;93718;-87
2023/02/20 14:02:04;;;;;;;10.07;5.15;;;20.50;61.60;;;;;;4822929;29;87218;-87
2023/02/20 14:04:35;;;;;;;11.43;5.15;;;20.50;61.80;;;;;;4822022;29;88439;-86
2023/02/20 14:07:01;;;;;;;9.20;4.63;;;20.50;61.70;;;;;;4797719;29;90525;-87
2023/02/20 14:09:31;;;;;;;8.85;4.53;;;20.50;61.70;;;;;;4808347;29;88234;-88
2023/02/20 14:12:11;;;;;;;8.88;4.45;;;20.40;61.70;;;;;;4812901;29;87508;-86
2023/02/20 14:21:26;;;;;;;9.48;5.20;;;20.50;60.90;;;;;;4859755;29;90434;-88
2023/02/20 14:23:52;;;;;;;10.65;5.82;;;20.60;60.40;;;;;;4844479;29;88047;-88
2023/02/20 14:26:22;;;;;;;10.55;6.03;;;20.70;58.90;;;;;;4843401;29;90599;-88
2023/02/20 14:28:53;;;;;;;9.38;6.03;;;20.70;58.90;;;;;;4859647;29;88779;-88
2023/02/20 14:31:23;;;;;;;12.13;5.40;;;20.70;59.50;;;;;;4840669;29;89796;-88
2023/02/20 14:33:54;;;;;;;9.32;5.38;;;20.70;58.40;;;;;;4887119;28;87345;-88
2023/02/20 14:36:52;;;;;;;7.05;4.63;;;20.80;59.00;;;;;;4938807;28;90247;-88
2023/02/20 14:39:39;;;;;;;8.43;5.22;;;20.70;59.20;;;;;;4946950;28;88707;-87
2023/02/20 14:45:36;;;;;;;9.95;4.57;;;20.70;59.40;;;;;;4956600;28;86894;-89
2023/02/20 14:48:03;;;;;;;9.40;4.78;;;20.80;59.10;;;;;;4939829;28;88996;-88
2023/02/20 14:50:34;;;;;;;6.60;4.05;;;20.80;59.20;;;;;;4939573;28;92511;-88
2023/02/20 14:53:03;;;;;;;10.40;4.28;;;20.90;57.80;;;;;;4955550;28;92030;-89
2023/02/20 14:55:29;;;;;;;7.13;3.95;;;21.00;56.20;;;;;;4936107;28;87397;-88
2023/02/20 15:05:14;;;;;;;8.88;4.85;;;21.10;57.20;;;;;;4955197;28;87433;-89
2023/02/20 15:07:42;;;;;;;8.68;4.15;;;21.10;57.20;;;;;;4950029;28;87483;-88
2023/02/20 15:10:33;;;;;;;12.82;5.15;;;21.10;56.80;;;;;;4950124;28;90708;-88
2023/02/20 15:13:28;;;;;;;14.30;6.25;;;21.10;55.20;;;;;;4950314;28;87738;-89
2023/02/20 15:16:12;;;;;;;16.60;5.00;;;21.00;53.90;;;;;;4877591;28;88225;-90
2023/02/20 15:18:40;;;;;;;15.18;5.60;;;21.00;55.60;;;;;;4869296;28;88377;-88
2023/02/20 15:21:14;;;;;;;12.23;5.43;;;21.00;56.20;;;;;;4877673;28;89750;-88
2023/02/20 15:35:02;;;;;;;15.25;6.07;;;21.10;58.70;;;;;;4885216;28;87494;-88
2023/02/20 15:37:34;;;;;;;11.00;4.63;;;21.10;58.90;;;;;;4896797;28;88432;-89
2023/02/20 15:40:20;;;;;;;12.63;5.10;;;21.10;59.00;;;;;;4896499;28;93556;-89
2023/02/20 15:42:47;;;;;;;10.40;4.78;;;21.10;59.10;;;;;;4888166;28;87722;-89
2023/02/20 15:45:13;;;;;;;10.88;5.05;;;21.20;58.90;;;;;;4904284;28;89649;-90
2023/02/20 15:47:38;;;;;;;10.10;4.80;;;21.10;59.20;;;;;;4896682;28;91656;-89
2023/02/20 15:50:04;;;;;;;7.75;4.85;;;21.10;59.40;;;;;;4896735;28;88715;-90
2023/02/20 15:52:31;;;;;;;10.02;5.65;;;21.00;58.60;;;;;;4909550;28;87667;-87
2023/02/20 15:54:58;;;;;;;8.90;4.68;;;21.00;58.30;;;;;;4928081;28;87351;-88
2023/02/20 15:57:23;;;;;;;16.10;6.47;;;21.10;58.40;;;;;;4939091;28;88445;-91
2023/02/20 16:00:21;;;;;;;12.75;5.25;;;21.10;58.50;;;;;;4927890;28;86909;-89
2023/02/20 16:06:10;;;;;;;10.43;5.43;;;21.10;58.80;;;;;;4927341;28;90272;-90
2023/02/20 16:08:36;;;;;;;13.02;5.78;;;21.10;59.00;;;;;;4927186;28;89215;-89
2023/02/20 16:11:02;;;;;;;14.13;5.68;;;21.20;59.10;;;;;;4927504;28;87308;-90
2023/02/20 16:13:30;;;;;;;17.08;5.97;;;21.10;58.80;;;;;;4932276;28;88345;-89
2023/02/20 16:15:56;;;;;;;9.43;5.22;;;21.20;58.90;;;;;;4934683;28;88907;-89
2023/02/20 16:18:22;;;;;;;10.23;5.20;;;21.20;59.20;;;;;;4945367;28;90141;-89
2023/02/20 16:20:51;;;;;;;10.65;5.05;;;21.20;59.00;;;;;;4955502;28;90856;-90
2023/02/20 16:23:17;;;;;;;10.52;4.47;;;21.20;59.00;;;;;;4938580;28;87145;-89
2023/02/20 16:25:44;;;;;;;11.07;5.10;;;21.20;59.20;;;;;;4935163;28;87532;-90
2023/02/20 16:28:12;;;;;;;9.10;4.85;;;21.10;59.10;;;;;;4933562;28;91588;-89
2023/02/20 16:30:40;;;;;;;15.02;5.78;;;21.10;59.30;;;;;;4939179;28;88389;-90
2023/02/20 16:33:22;;;;;;;12.20;5.68;;;21.10;59.30;;;;;;4940457;28;86931;-88
2023/02/20 16:35:51;;;;;;;10.40;5.35;;;21.00;59.40;;;;;;4958917;28;87430;-91
2023/02/20 16:38:18;;;;;;;8.73;4.93;;;21.10;59.50;;;;;;4947349;28;91579;-90
2023/02/20 16:40:44;;;;;;;8.50;5.13;;;21.10;59.30;;;;;;4951654;28;88924;-90
2023/02/20 16:43:13;;;;;;;10.20;4.85;;;21.10;59.40;;;;;;4932451;28;87553;-91
2023/02/20 16:45:42;;;;;;;11.90;5.50;;;21.20;59.20;;;;;;4948572;28;87893;-90
2023/02/20 16:48:14;;;;;;;11.03;4.60;;;21.20;59.20;;;;;;4931033;28;90681;-91
2023/02/20 16:50:40;;;;;;;12.20;5.43;;;21.30;59.10;;;;;;4947482;28;89910;-90
2023/02/20 16:53:05;;;;;;;9.98;5.07;;;21.30;59.00;;;;;;4927074;28;87052;-90
2023/02/20 16:55:36;;;;;;;8.52;4.70;;;21.30;59.10;;;;;;4942567;28;89461;-91
2023/02/20 16:58:24;;;;;;;8.25;4.75;;;21.40;59.10;;;;;;4931364;28;88451;-89
2023/02/20 17:00:51;;;;;;;8.68;4.22;;;21.40;59.00;;;;;;4943062;28;87972;-88
2023/02/20 17:03:17;;;;;;;10.65;5.00;;;21.50;58.80;;;;;;4932436;28;88144;-89
2023/02/20 17:05:42;;;;;;;10.00;4.75;;;21.50;58.70;;;;;;4948993;28;87275;-88
2023/02/20 17:08:10;;;;;;;9.25;5.03;;;21.50;58.60;;;;;;4959048;28;87668;-89
2023/02/20 17:10:36;;;;;;;12.13;5.68;;;21.60;58.80;;;;;;4957827;28;90079;-91
2023/02/20 17:13:03;;;;;;;8.80;4.68;;;21.50;58.90;;;;;;4929110;28;87421;-89
2023/02/20 17:15:28;;;;;;;6.85;4.20;;;21.50;59.00;;;;;;4930467;28;86983;-90
2023/02/20 17:17:54;;;;;;;10.05;5.47;;;21.50;59.00;;;;;;4931690;28;88708;-89
2023/02/20 17:20:25;;;;;;;7.63;4.60;;;21.50;59.10;;;;;;4942051;28;93932;-91
2023/02/20 17:22:54;;;;;;;6.28;4.32;;;21.50;59.30;;;;;;4934858;28;87239;-89
2023/02/20 17:25:21;;;;;;;10.00;4.87;;;21.40;59.70;;;;;;4957295;28;89030;-89
2023/02/20 17:34:30;;;;;;;7.22;4.07;;;21.50;59.10;;;;;;4946832;28;86957;-94